Time;durP1;ratioP1;P1;durP2;ratioP2;P2;SDS_P1;SDS_P2;PMS_P1;PMS_P2;Temp;Humidity;BMP_temperature;BMP_pressure;BME280_temperature;BME280_humidity;BME280_pressure;Samples;Min_cycle;Max_cycle;Signal;HPM_P1;HPM_P2
2022/05/12 00:01:54;;;;;;;7.63;2.40;;;;;;;;;;5029344;28;20018;-73
2022/05/12 00:04:19;;;;;;;10.40;2.65;;;;;;;;;;5028801;28;20278;-71
2022/05/12 00:06:44;;;;;;;13.23;2.60;;;;;;;;;;5028280;28;20302;-73
2022/05/12 00:09:10;;;;;;;9.80;2.23;;;;;;;;;;5027251;28;20271;-73
2022/05/12 00:11:35;;;;;;;12.53;2.40;;;;;;;;;;5029057;28;20276;-73
2022/05/12 00:14:00;;;;;;;9.23;3.47;;;;;;;;;;5028602;28;20268;-71
2022/05/12 00:16:25;;;;;;;9.17;2.00;;;;;;;;;;5027753;28;20272;-73
2022/05/12 00:18:50;;;;;;;7.88;2.10;;;;;;;;;;5029294;28;20025;-73
2022/05/12 00:21:15;;;;;;;7.93;1.90;;;;;;;;;;5026428;28;20021;-73
2022/05/12 00:23:41;;;;;;;8.77;2.40;;;;;;;;;;5028809;28;20288;-73
2022/05/12 00:26:06;;;;;;;5.20;2.08;;;;;;;;;;5027034;28;20759;-73
2022/05/12 00:28:31;;;;;;;6.50;2.10;;;;;;;;;;5027536;28;20013;-73
2022/05/12 00:30:57;;;;;;;7.00;2.13;;;;;;;;;;5028344;28;20268;-73
2022/05/12 00:33:25;;;;;;;12.20;2.35;;;;;;;;;;5029270;28;20155;-73
2022/05/12 00:35:50;;;;;;;5.35;2.25;;;;;;;;;;5022822;28;20021;-73
2022/05/12 00:38:16;;;;;;;5.78;2.00;;;;;;;;;;5028474;28;20067;-73
2022/05/12 00:40:42;;;;;;;10.02;2.85;;;;;;;;;;5027659;28;20361;-71
2022/05/12 00:43:09;;;;;;;8.35;1.80;;;;;;;;;;5028734;28;20056;-73
2022/05/12 00:45:35;;;;;;;10.57;2.60;;;;;;;;;;5028538;28;20133;-73
2022/05/12 00:48:02;;;;;;;5.00;2.58;;;;;;;;;;5027979;28;20021;-73
2022/05/12 00:50:33;;;;;;;10.60;3.72;;;;;;;;;;5025022;28;20109;-71
2022/05/12 00:52:59;;;;;;;7.20;2.53;;;;;;;;;;5024698;28;20435;-73
2022/05/12 00:55:27;;;;;;;10.95;3.67;;;;;;;;;;5029706;28;20109;-73
2022/05/12 00:57:55;;;;;;;9.70;2.97;;;;;;;;;;5027981;28;20491;-73
2022/05/12 01:00:21;;;;;;;9.63;3.20;;;;;;;;;;5029514;28;20025;-73
2022/05/12 01:02:48;;;;;;;8.40;2.92;;;;;;;;;;5026500;28;20032;-72
2022/05/12 01:05:14;;;;;;;14.60;3.80;;;;;;;;;;5026936;28;20025;-73
2022/05/12 01:07:39;;;;;;;16.80;4.25;;;;;;;;;;5026488;28;20389;-73
2022/05/12 01:10:04;;;;;;;13.03;2.80;;;;;;;;;;5029540;28;20374;-73
2022/05/12 01:12:30;;;;;;;8.20;3.15;;;;;;;;;;5027223;28;20287;-73
2022/05/12 01:14:55;;;;;;;11.18;3.30;;;;;;;;;;5027788;28;20037;-73
2022/05/12 01:17:23;;;;;;;6.67;3.00;;;;;;;;;;5028168;28;20025;-73
2022/05/12 01:19:51;;;;;;;6.22;2.72;;;;;;;;;;5029275;28;20276;-70
2022/05/12 01:22:35;;;;;;;10.77;3.30;;;;;;;;;;5028000;28;20029;-73
2022/05/12 01:25:00;;;;;;;9.10;2.42;;;;;;;;;;5027832;28;20017;-73
2022/05/12 01:27:29;;;;;;;11.30;3.00;;;;;;;;;;5026878;28;20022;-73
2022/05/12 01:29:56;;;;;;;4.82;2.33;;;;;;;;;;5029414;28;20394;-73
2022/05/12 01:32:23;;;;;;;6.30;2.70;;;;;;;;;;5028660;28;20037;-73
2022/05/12 01:34:48;;;;;;;8.40;3.08;;;;;;;;;;5029008;28;20188;-73
2022/05/12 01:37:13;;;;;;;9.13;2.53;;;;;;;;;;5028794;28;20030;-73
2022/05/12 01:39:39;;;;;;;9.95;3.13;;;;;;;;;;5029689;28;20704;-72
2022/05/12 01:42:05;;;;;;;12.75;3.80;;;;;;;;;;5030291;28;20037;-73
2022/05/12 01:44:31;;;;;;;12.07;2.95;;;;;;;;;;5032350;28;20033;-73
2022/05/12 01:46:56;;;;;;;10.65;2.85;;;;;;;;;;5032148;28;20092;-73
2022/05/12 01:49:22;;;;;;;10.32;2.88;;;;;;;;;;5033612;28;20017;-72
2022/05/12 01:51:50;;;;;;;10.63;2.90;;;;;;;;;;5029310;28;20021;-73
2022/05/12 01:54:15;;;;;;;12.15;2.97;;;;;;;;;;5031203;28;20037;-71
2022/05/12 01:56:41;;;;;;;12.07;2.80;;;;;;;;;;5032346;28;20032;-72
2022/05/12 01:59:06;;;;;;;13.70;3.27;;;;;;;;;;5031739;28;20021;-73
2022/05/12 02:01:31;;;;;;;6.37;3.30;;;;;;;;;;5031013;28;20677;-73
2022/05/12 02:03:56;;;;;;;10.05;3.75;;;;;;;;;;5032219;28;20280;-73
2022/05/12 02:06:21;;;;;;;15.77;3.28;;;;;;;;;;5032950;28;20033;-73
2022/05/12 02:08:46;;;;;;;11.87;3.43;;;;;;;;;;5030576;28;20025;-73
2022/05/12 02:11:12;;;;;;;11.30;3.57;;;;;;;;;;5029640;28;20287;-73
2022/05/12 02:13:37;;;;;;;10.73;3.30;;;;;;;;;;5030520;28;20760;-72
2022/05/12 02:16:02;;;;;;;9.33;3.47;;;;;;;;;;5032055;28;20343;-73
2022/05/12 02:18:28;;;;;;;17.05;3.92;;;;;;;;;;5030642;28;20284;-73
2022/05/12 02:20:54;;;;;;;11.48;3.30;;;;;;;;;;5029472;28;20122;-73
2022/05/12 02:23:19;;;;;;;8.52;3.45;;;;;;;;;;5032629;28;20060;-72
2022/05/12 02:25:44;;;;;;;5.55;3.25;;;;;;;;;;5031726;28;20363;-73
2022/05/12 02:28:10;;;;;;;11.88;3.55;;;;;;;;;;5030956;28;20045;-73
2022/05/12 02:30:35;;;;;;;10.85;3.42;;;;;;;;;;5030477;28;20507;-73
2022/05/12 02:33:01;;;;;;;11.82;3.28;;;;;;;;;;5030404;28;20025;-73
2022/05/12 02:35:28;;;;;;;12.35;3.60;;;;;;;;;;5046592;28;20409;-71
2022/05/12 02:37:53;;;;;;;11.60;4.28;;;;;;;;;;5030095;28;20097;-73
2022/05/12 02:40:19;;;;;;;21.08;5.63;;;;;;;;;;5032085;28;20036;-73
2022/05/12 02:42:45;;;;;;;7.85;3.53;;;;;;;;;;5031071;28;20456;-73
2022/05/12 02:45:10;;;;;;;10.77;4.13;;;;;;;;;;5031017;28;20014;-72
2022/05/12 02:47:35;;;;;;;10.07;3.80;;;;;;;;;;5030992;28;20610;-71
2022/05/12 02:50:01;;;;;;;10.53;3.70;;;;;;;;;;5024791;28;20028;-73
2022/05/12 02:52:26;;;;;;;16.65;4.55;;;;;;;;;;5057450;22;20994;-70
2022/05/12 02:54:51;;;;;;;14.02;3.80;;;;;;;;;;5050364;28;20082;-68
2022/05/12 02:57:16;;;;;;;6.93;4.07;;;;;;;;;;5050115;28;20092;-68
2022/05/12 02:59:41;;;;;;;10.43;3.88;;;;;;;;;;5050844;28;20272;-68
2022/05/12 03:02:07;;;;;;;7.55;3.72;;;;;;;;;;5049784;28;20117;-68
2022/05/12 03:04:33;;;;;;;13.40;4.25;;;;;;;;;;5048674;28;20493;-69
2022/05/12 03:06:58;;;;;;;9.95;4.10;;;;;;;;;;5049925;28;20024;-68
2022/05/12 03:09:23;;;;;;;10.23;3.70;;;;;;;;;;5049718;28;20017;-68
2022/05/12 03:11:48;;;;;;;7.47;4.20;;;;;;;;;;5049784;28;20507;-69
2022/05/12 03:14:14;;;;;;;10.70;3.70;;;;;;;;;;5051229;28;20301;-68
2022/05/12 03:16:39;;;;;;;17.80;4.38;;;;;;;;;;5050012;28;20751;-68
2022/05/12 03:19:04;;;;;;;11.53;3.83;;;;;;;;;;5051809;28;20046;-68
2022/05/12 03:21:30;;;;;;;9.43;3.63;;;;;;;;;;5049970;28;20271;-69
2022/05/12 03:23:55;;;;;;;12.18;4.03;;;;;;;;;;5050233;28;20031;-69
2022/05/12 03:26:20;;;;;;;7.70;3.70;;;;;;;;;;5049609;28;20423;-68
2022/05/12 03:28:45;;;;;;;9.27;4.30;;;;;;;;;;5049681;28;20366;-68
2022/05/12 03:31:11;;;;;;;9.23;5.20;;;;;;;;;;5048280;28;20266;-68
2022/05/12 03:33:36;;;;;;;17.30;4.63;;;;;;;;;;5050455;28;20698;-68
2022/05/12 03:36:01;;;;;;;12.73;4.68;;;;;;;;;;5049541;28;20268;-70
2022/05/12 03:38:27;;;;;;;11.98;4.80;;;;;;;;;;5051137;28;20053;-70
2022/05/12 03:40:52;;;;;;;13.27;4.68;;;;;;;;;;5048956;28;20017;-69
2022/05/12 03:46:02;;;;;;;13.50;4.55;;;;;;;;;;5048112;28;20063;-70
2022/05/12 03:48:28;;;;;;;12.68;4.00;;;;;;;;;;5049808;28;20486;-70
2022/05/12 03:50:53;;;;;;;14.27;4.38;;;;;;;;;;5047915;28;20056;-70
2022/05/12 03:53:18;;;;;;;19.33;3.93;;;;;;;;;;5049567;28;20072;-69
2022/05/12 03:55:43;;;;;;;16.07;3.87;;;;;;;;;;5048830;28;20278;-70
2022/05/12 03:58:08;;;;;;;10.20;3.88;;;;;;;;;;5048258;28;20302;-70
2022/05/12 04:00:34;;;;;;;16.33;3.95;;;;;;;;;;5047513;28;20041;-70
2022/05/12 04:03:00;;;;;;;17.15;4.05;;;;;;;;;;5049967;28;20017;-69
2022/05/12 04:05:27;;;;;;;10.68;4.00;;;;;;;;;;5048838;28;20020;-70
2022/05/12 04:07:53;;;;;;;14.00;3.97;;;;;;;;;;5048300;28;20101;-69
2022/05/12 04:10:18;;;;;;;14.20;3.95;;;;;;;;;;5048118;28;20096;-70
2022/05/12 04:12:43;;;;;;;12.00;4.05;;;;;;;;;;5047426;28;20481;-70
2022/05/12 04:15:09;;;;;;;15.65;5.15;;;;;;;;;;5048488;28;20052;-69
2022/05/12 04:17:35;;;;;;;10.80;4.32;;;;;;;;;;5047160;28;20017;-70
2022/05/12 04:20:03;;;;;;;10.00;4.60;;;;;;;;;;5048078;28;20017;-70
2022/05/12 04:22:28;;;;;;;13.80;5.43;;;;;;;;;;5047208;28;20021;-70
2022/05/12 04:24:54;;;;;;;15.55;5.10;;;;;;;;;;5044198;28;20083;-70
2022/05/12 04:27:20;;;;;;;13.15;4.75;;;;;;;;;;5049192;28;20024;-70
2022/05/12 04:29:45;;;;;;;11.40;4.40;;;;;;;;;;5045474;28;20431;-70
2022/05/12 04:32:10;;;;;;;17.97;5.97;;;;;;;;;;5047943;28;20279;-70
2022/05/12 04:37:30;;;;;;;12.43;4.15;;;;;;;;;;5047342;28;20438;-70
2022/05/12 04:39:55;;;;;;;13.48;5.53;;;;;;;;;;5045394;28;20155;-70
2022/05/12 04:42:21;;;;;;;9.45;4.38;;;;;;;;;;5046687;28;20116;-70
2022/05/12 04:44:46;;;;;;;9.93;4.22;;;;;;;;;;5046151;28;20032;-70
2022/05/12 04:47:11;;;;;;;18.15;5.13;;;;;;;;;;5045699;28;20066;-70
2022/05/12 04:49:36;;;;;;;16.60;5.00;;;;;;;;;;5044693;28;20045;-71
2022/05/12 04:52:02;;;;;;;13.52;4.75;;;;;;;;;;5045925;28;20612;-70
2022/05/12 04:54:28;;;;;;;15.30;4.68;;;;;;;;;;5047371;28;20025;-70
2022/05/12 04:56:53;;;;;;;21.50;5.05;;;;;;;;;;5043736;28;20021;-69
2022/05/12 04:59:18;;;;;;;13.50;4.57;;;;;;;;;;5045352;28;20021;-70
2022/05/12 05:01:43;;;;;;;11.00;4.07;;;;;;;;;;5043480;28;20791;-70
2022/05/12 05:04:09;;;;;;;12.03;4.20;;;;;;;;;;5046948;28;20111;-69
2022/05/12 05:06:34;;;;;;;14.82;4.00;;;;;;;;;;5044452;28;20275;-70
2022/05/12 05:09:00;;;;;;;15.20;4.97;;;;;;;;;;5048226;28;20021;-70
2022/05/12 05:11:25;;;;;;;12.50;4.63;;;;;;;;;;5046208;28;20747;-69
2022/05/12 05:13:50;;;;;;;15.23;4.05;;;;;;;;;;5045337;28;20385;-70
2022/05/12 05:16:16;;;;;;;15.73;4.47;;;;;;;;;;5050667;28;20032;-70
2022/05/12 05:18:41;;;;;;;14.95;4.50;;;;;;;;;;5050552;28;20601;-70
2022/05/12 05:21:07;;;;;;;10.32;4.05;;;;;;;;;;5049970;28;20037;-71
2022/05/12 05:23:33;;;;;;;16.08;4.55;;;;;;;;;;5049734;28;20072;-70
2022/05/12 05:25:59;;;;;;;17.10;3.80;;;;;;;;;;5047837;28;20067;-70
2022/05/12 05:28:24;;;;;;;13.98;3.42;;;;;;;;;;5049775;28;20533;-70
2022/05/12 05:30:50;;;;;;;11.63;3.42;;;;;;;;;;5049780;28;20104;-70
2022/05/12 05:33:15;;;;;;;14.05;3.55;;;;;;;;;;5051063;28;20108;-70
2022/05/12 05:35:40;;;;;;;9.82;3.72;;;;;;;;;;5049728;28;20033;-70
2022/05/12 05:38:05;;;;;;;7.07;3.03;;;;;;;;;;5049848;28;20029;-70
2022/05/12 05:40:31;;;;;;;13.45;3.80;;;;;;;;;;5047555;28;20082;-70
2022/05/12 05:42:56;;;;;;;20.17;3.47;;;;;;;;;;5044745;28;20108;-70
2022/05/12 05:45:22;;;;;;;13.35;3.65;;;;;;;;;;5046289;28;20640;-70
2022/05/12 05:47:56;;;;;;;8.25;3.47;;;;;;;;;;5050260;28;20116;-70
2022/05/12 05:50:23;;;;;;;8.73;3.28;;;;;;;;;;5046497;28;20028;-70
2022/05/12 05:55:32;;;;;;;14.35;4.15;;;;;;;;;;5048657;28;20027;-70
2022/05/12 05:58:01;;;;;;;12.60;3.40;;;;;;;;;;5046937;28;20025;-70
2022/05/12 06:00:27;;;;;;;12.70;4.07;;;;;;;;;;5048040;28;20873;-70
2022/05/12 06:02:52;;;;;;;10.48;4.13;;;;;;;;;;5047056;28;20127;-70
2022/05/12 06:05:18;;;;;;;14.82;4.63;;;;;;;;;;5049947;28;20020;-70
2022/05/12 06:07:43;;;;;;;18.23;4.55;;;;;;;;;;5047575;28;20091;-70
2022/05/12 06:10:08;;;;;;;15.63;4.15;;;;;;;;;;5049094;28;20492;-70
2022/05/12 06:12:34;;;;;;;16.27;3.92;;;;;;;;;;5046101;28;20055;-70
2022/05/12 06:14:59;;;;;;;11.77;3.60;;;;;;;;;;5050123;28;20362;-70
2022/05/12 06:17:24;;;;;;;11.30;3.38;;;;;;;;;;5049198;28;20560;-70
2022/05/12 06:19:50;;;;;;;11.88;2.38;;;;;;;;;;5045771;28;20039;-70
2022/05/12 06:22:18;;;;;;;13.10;2.95;;;;;;;;;;5048254;28;20029;-70
2022/05/12 06:24:44;;;;;;;10.07;2.90;;;;;;;;;;5041698;28;20099;-70
2022/05/12 06:27:09;;;;;;;7.88;2.65;;;;;;;;;;5046682;28;20449;-70
2022/05/12 06:29:36;;;;;;;14.35;3.08;;;;;;;;;;5048853;28;20028;-70
2022/05/12 06:32:01;;;;;;;5.05;2.75;;;;;;;;;;5046648;28;20025;-70
2022/05/12 06:34:27;;;;;;;10.55;2.67;;;;;;;;;;5046300;28;20438;-70
2022/05/12 06:36:54;;;;;;;7.47;3.03;;;;;;;;;;5049463;28;20075;-70
2022/05/12 06:39:19;;;;;;;11.75;2.28;;;;;;;;;;5047520;28;20821;-70
2022/05/12 06:41:44;;;;;;;8.85;2.60;;;;;;;;;;5050895;28;20100;-70
2022/05/12 06:44:10;;;;;;;11.30;2.53;;;;;;;;;;5049143;28;20074;-70
2022/05/12 06:46:36;;;;;;;8.00;2.20;;;;;;;;;;5048279;28;20021;-70
2022/05/12 06:49:03;;;;;;;8.27;2.45;;;;;;;;;;5050893;28;20435;-70
2022/05/12 06:51:29;;;;;;;10.75;2.58;;;;;;;;;;5052368;28;20023;-70
2022/05/12 06:53:55;;;;;;;8.60;2.60;;;;;;;;;;5048883;28;20389;-70
2022/05/12 06:56:20;;;;;;;11.20;2.97;;;;;;;;;;5050473;28;20024;-70
2022/05/12 06:58:45;;;;;;;8.13;2.60;;;;;;;;;;5047778;28;20043;-70
2022/05/12 07:01:11;;;;;;;7.57;2.55;;;;;;;;;;5051542;28;20021;-70
2022/05/12 07:03:37;;;;;;;10.43;2.53;;;;;;;;;;5046825;28;20478;-70
2022/05/12 07:06:03;;;;;;;8.48;2.75;;;;;;;;;;5045808;28;20032;-70
2022/05/12 07:08:28;;;;;;;12.25;2.50;;;;;;;;;;5048190;28;20029;-70
2022/05/12 07:10:54;;;;;;;10.02;2.67;;;;;;;;;;5048623;28;20024;-70
2022/05/12 07:13:20;;;;;;;8.57;3.08;;;;;;;;;;5050885;28;20052;-70
2022/05/12 07:15:49;;;;;;;9.15;2.70;;;;;;;;;;5049521;28;20037;-70
2022/05/12 07:18:16;;;;;;;6.00;2.28;;;;;;;;;;5049475;28;20024;-70
2022/05/12 07:28:53;;;;;;;9.68;2.28;;;;;;;;;;5032363;28;20504;-70
2022/05/12 07:31:18;;;;;;;7.68;1.85;;;;;;;;;;5043936;28;20022;-70
2022/05/12 07:33:44;;;;;;;6.10;2.27;;;;;;;;;;5048285;28;20496;-71
2022/05/12 07:36:14;;;;;;;12.35;2.22;;;;;;;;;;5046934;28;20275;-70
2022/05/12 07:38:39;;;;;;;6.13;1.90;;;;;;;;;;5046155;28;20028;-70
2022/05/12 07:41:07;;;;;;;5.50;1.73;;;;;;;;;;5046912;28;20287;-70
2022/05/12 07:43:33;;;;;;;12.00;3.80;;;;;;;;;;5049299;28;20524;-70
2022/05/12 07:45:58;;;;;;;2.95;1.88;;;;;;;;;;5050032;28;20024;-70
2022/05/12 07:48:23;;;;;;;10.43;2.30;;;;;;;;;;5047017;28;20020;-70
2022/05/12 07:50:49;;;;;;;6.60;2.47;;;;;;;;;;5044304;28;20478;-71
2022/05/12 07:53:14;;;;;;;10.00;2.77;;;;;;;;;;5047216;28;20031;-71
2022/05/12 07:55:39;;;;;;;9.60;3.43;;;;;;;;;;5041751;28;20279;-71
2022/05/12 07:58:05;;;;;;;10.13;3.60;;;;;;;;;;5047080;28;20272;-71
2022/05/12 08:00:31;;;;;;;10.38;2.47;;;;;;;;;;5046853;28;20035;-71
2022/05/12 08:02:56;;;;;;;11.77;3.10;;;;;;;;;;5046241;28;20060;-71
2022/05/12 08:05:22;;;;;;;7.53;2.97;;;;;;;;;;5046554;28;20342;-70
2022/05/12 08:07:48;;;;;;;11.10;3.42;;;;;;;;;;5047324;28;20013;-70
2022/05/12 08:10:14;;;;;;;7.10;2.50;;;;;;;;;;5047712;28;20092;-70
2022/05/12 08:12:39;;;;;;;8.10;2.53;;;;;;;;;;5045374;28;20117;-70
2022/05/12 08:15:05;;;;;;;3.90;2.50;;;;;;;;;;5047423;28;20036;-70
2022/05/12 08:17:30;;;;;;;12.98;3.58;;;;;;;;;;5046288;28;20025;-70
2022/05/12 08:19:55;;;;;;;15.10;5.43;;;;;;;;;;5046270;28;20024;-70
2022/05/12 08:22:20;;;;;;;11.17;4.50;;;;;;;;;;5045754;28;20336;-70
2022/05/12 08:24:46;;;;;;;15.02;4.82;;;;;;;;;;5045889;28;20266;-70
2022/05/12 08:27:13;;;;;;;14.00;4.50;;;;;;;;;;5045887;28;20079;-70
2022/05/12 08:29:40;;;;;;;15.77;5.18;;;;;;;;;;5048711;28;20013;-70
2022/05/12 08:32:05;;;;;;;9.40;5.07;;;;;;;;;;5045423;28;20048;-70
2022/05/12 08:34:31;;;;;;;10.02;3.60;;;;;;;;;;5044895;28;20472;-71
2022/05/12 08:36:56;;;;;;;13.60;3.55;;;;;;;;;;5047434;28;20033;-71
2022/05/12 08:39:21;;;;;;;17.07;5.57;;;;;;;;;;5044642;28;20079;-71
2022/05/12 08:41:52;;;;;;;17.73;4.47;;;;;;;;;;5046771;28;20381;-71
2022/05/12 08:44:20;;;;;;;13.05;4.53;;;;;;;;;;5046272;28;20484;-71
2022/05/12 08:46:53;;;;;;;12.48;4.53;;;;;;;;;;5046417;28;20024;-71
2022/05/12 08:49:27;;;;;;;8.35;3.88;;;;;;;;;;5042527;28;20013;-71
2022/05/12 08:52:13;;;;;;;10.77;3.92;;;;;;;;;;5046922;28;20017;-71
2022/05/12 08:54:43;;;;;;;8.77;3.05;;;;;;;;;;5049454;22;20120;-88
2022/05/12 08:57:12;;;;;;;10.27;3.45;;;;;;;;;;5045359;28;20021;-87
2022/05/12 08:59:38;;;;;;;8.88;2.83;;;;;;;;;;5046123;28;20036;-89
2022/05/12 09:02:04;;;;;;;8.05;2.65;;;;;;;;;;5043101;28;20029;-88
2022/05/12 09:04:47;;;;;;;10.15;2.85;;;;;;;;;;5043664;28;20017;-89
2022/05/12 09:07:27;;;;;;;11.27;2.40;;;;;;;;;;5042849;28;20040;-88
2022/05/12 09:09:52;;;;;;;11.30;3.53;;;;;;;;;;5042953;28;20021;-88
2022/05/12 09:12:32;;;;;;;9.90;1.87;;;;;;;;;;5037250;28;20028;-86
2022/05/12 09:15:05;;;;;;;4.63;2.30;;;;;;;;;;5041842;28;20361;-90
2022/05/12 09:17:42;;;;;;;11.48;2.55;;;;;;;;;;5039121;28;20025;-88
2022/05/12 09:20:09;;;;;;;8.27;2.42;;;;;;;;;;5045464;28;20386;-88
2022/05/12 09:22:43;;;;;;;10.75;2.22;;;;;;;;;;5044650;28;20021;-88
2022/05/12 09:25:32;;;;;;;7.45;2.28;;;;;;;;;;5046614;28;20048;-88
2022/05/12 09:28:07;;;;;;;13.10;3.25;;;;;;;;;;5045281;28;20044;-88
2022/05/12 09:30:40;;;;;;;5.78;1.83;;;;;;;;;;5045560;28;20027;-88
2022/05/12 09:33:22;;;;;;;7.82;1.98;;;;;;;;;;5050151;28;20330;-89
2022/05/12 09:35:54;;;;;;;6.30;1.73;;;;;;;;;;5044632;28;20028;-87
2022/05/12 09:38:22;;;;;;;7.63;2.05;;;;;;;;;;5044701;28;20055;-89
2022/05/12 09:40:48;;;;;;;9.82;2.40;;;;;;;;;;5045520;28;20058;-88
2022/05/12 09:43:21;;;;;;;4.47;1.15;;;;;;;;;;5052714;28;20017;-87
2022/05/12 09:46:14;;;;;;;4.47;1.55;;;;;;;;;;5058726;28;20032;-88
2022/05/12 09:48:41;;;;;;;10.32;2.30;;;;;;;;;;5048427;28;20111;-87
2022/05/12 09:51:24;;;;;;;6.57;2.33;;;;;;;;;;5049309;28;20025;-87
2022/05/12 09:53:54;;;;;;;12.75;2.20;;;;;;;;;;5046283;28;20041;-88
2022/05/12 09:56:28;;;;;;;9.65;2.20;;;;;;;;;;5040896;28;20033;-90
2022/05/12 09:59:17;;;;;;;7.68;2.97;;;;;;;;;;5041553;28;20112;-88
2022/05/12 10:01:52;;;;;;;8.63;3.58;;;;;;;;;;5023000;28;20102;-88
2022/05/12 10:10:05;;;;;;;6.40;2.35;;;;;;;;;;5047801;28;20039;-89
2022/05/12 10:12:37;;;;;;;6.50;2.45;;;;;;;;;;5049778;28;20029;-90
2022/05/12 10:15:21;;;;;;;6.68;2.55;;;;;;;;;;5048641;28;20044;-91
2022/05/12 10:17:54;;;;;;;4.53;1.85;;;;;;;;;;5046368;28;20025;-88
2022/05/12 10:20:38;;;;;;;10.68;2.17;;;;;;;;;;5046109;28;20136;-88
2022/05/12 10:23:30;;;;;;;6.57;1.65;;;;;;;;;;5050103;28;20031;-86
2022/05/12 10:26:02;;;;;;;7.00;2.03;;;;;;;;;;5033174;28;20055;-90
2022/05/12 10:28:42;;;;;;;8.43;1.90;;;;;;;;;;5046045;28;20416;-87
2022/05/12 10:31:27;;;;;;;8.60;2.28;;;;;;;;;;5069740;28;20171;-87
2022/05/12 10:34:12;;;;;;;12.75;1.50;;;;;;;;;;5068033;28;20017;-88
2022/05/12 10:36:56;;;;;;;9.90;1.70;;;;;;;;;;5060900;28;20024;-87
2022/05/12 10:39:37;;;;;;;6.50;2.28;;;;;;;;;;5062080;28;20047;-87
2022/05/12 10:42:21;;;;;;;5.00;1.80;;;;;;;;;;5063235;28;20025;-85
2022/05/12 10:45:47;;;;;;;5.47;1.58;;;;;;;;;;5063436;28;20001;-87
2022/05/12 10:48:22;;;;;;;6.40;1.83;;;;;;;;;;5068084;28;20079;-88
2022/05/12 10:51:06;;;;;;;6.93;1.67;;;;;;;;;;5069097;28;20013;-90
2022/05/12 10:53:53;;;;;;;5.00;1.90;;;;;;;;;;5064028;28;20093;-84
2022/05/12 10:56:18;;;;;;;7.60;2.25;;;;;;;;;;5068497;28;20044;-87
2022/05/12 10:59:13;;;;;;;10.45;1.73;;;;;;;;;;5061072;28;20024;-87
2022/05/12 11:01:47;;;;;;;7.85;1.90;;;;;;;;;;5032749;28;20147;-86
2022/05/12 11:04:26;;;;;;;3.00;1.45;;;;;;;;;;5077365;28;20029;-87
2022/05/12 11:07:04;;;;;;;6.47;2.33;;;;;;;;;;5057118;28;20442;-87
2022/05/12 11:09:29;;;;;;;5.40;2.35;;;;;;;;;;5057746;28;20046;-86
2022/05/12 11:12:09;;;;;;;7.97;1.45;;;;;;;;;;5056693;28;20432;-89
2022/05/12 11:14:40;;;;;;;7.88;1.73;;;;;;;;;;5055313;28;20025;-89
2022/05/12 11:17:08;;;;;;;9.82;1.60;;;;;;;;;;5058138;28;20025;-91
2022/05/12 11:20:12;;;;;;;5.85;1.98;;;;;;;;;;5051966;28;20009;-91
2022/05/12 11:22:43;;;;;;;7.95;1.42;;;;;;;;;;5068374;28;20271;-88
2022/05/12 11:25:22;;;;;;;5.68;1.60;;;;;;;;;;5077452;22;20020;-66
2022/05/12 11:30:55;;;;;;;7.80;1.63;;;;;;;;;;5005032;28;20068;-66
2022/05/12 11:33:32;;;;;;;5.07;1.33;;;;;;;;;;5007574;28;20029;-65
2022/05/12 11:35:57;;;;;;;8.93;1.80;;;;;;;;;;5007827;28;20064;-66
2022/05/12 11:38:35;;;;;;;5.60;1.42;;;;;;;;;;5008872;28;20540;-67
2022/05/12 11:41:00;;;;;;;6.47;1.33;;;;;;;;;;5008380;28;20268;-66
2022/05/12 11:46:21;;;;;;;8.32;1.70;;;;;;;;;;5006153;28;20044;-66
2022/05/12 11:48:49;;;;;;;11.38;2.03;;;;;;;;;;5003517;28;20033;-66
2022/05/12 11:51:23;;;;;;;9.57;1.70;;;;;;;;;;5007087;28;20026;-67
2022/05/12 11:54:01;;;;;;;6.90;1.75;;;;;;;;;;5008418;28;20038;-66
2022/05/12 11:56:32;;;;;;;10.43;1.70;;;;;;;;;;5003883;28;20056;-67
2022/05/12 11:59:13;;;;;;;3.35;1.45;;;;;;;;;;5004309;28;20022;-66
2022/05/12 12:01:38;;;;;;;;;;;;;;;;;;5005277;28;20060;-66
2022/05/12 12:04:03;;;;;;;11.82;1.90;;;;;;;;;;5005439;28;19921;-67
2022/05/12 12:06:49;;;;;;;5.45;1.33;;;;;;;;;;5008946;28;20018;-66
2022/05/12 12:09:28;;;;;;;7.07;1.85;;;;;;;;;;5005458;28;20017;-66
2022/05/12 12:11:54;;;;;;;5.38;1.30;;;;;;;;;;5007411;28;20105;-66
2022/05/12 12:14:55;;;;;;;4.40;1.83;;;;;;;;;;5003480;28;20171;-67
2022/05/12 12:17:23;;;;;;;15.60;2.92;;;;;;;;;;4964901;28;20034;-67
2022/05/12 12:19:49;;;;;;;12.88;1.67;;;;;;;;;;4998494;28;20044;-67
2022/05/12 12:22:17;;;;;;;5.75;1.40;;;;;;;;;;5007861;28;20386;-67
2022/05/12 12:24:48;;;;;;;7.57;1.30;;;;;;;;;;5002379;28;20462;-67
2022/05/12 12:27:17;;;;;;;6.15;1.80;;;;;;;;;;5003907;28;20025;-67
2022/05/12 12:29:49;;;;;;;6.18;2.00;;;;;;;;;;5007660;28;20041;-67
2022/05/12 12:32:23;;;;;;;4.65;1.35;;;;;;;;;;5002895;28;20358;-66
2022/05/12 12:34:52;;;;;;;5.40;1.83;;;;;;;;;;5005253;28;20044;-67
2022/05/12 12:37:53;;;;;;;10.40;2.25;;;;;;;;;;5007594;28;20438;-67
2022/05/12 12:40:30;;;;;;;10.77;2.28;;;;;;;;;;4968191;28;20022;-67
2022/05/12 12:42:55;;;;;;;6.32;1.35;;;;;;;;;;4998721;28;20486;-66
2022/05/12 12:45:21;;;;;;;5.63;1.73;;;;;;;;;;5003589;28;20115;-66
2022/05/12 12:47:46;;;;;;;5.53;1.60;;;;;;;;;;5006712;28;20112;-67
2022/05/12 12:50:23;;;;;;;8.10;1.70;;;;;;;;;;5007043;28;20018;-67
2022/05/12 12:52:50;;;;;;;9.80;1.98;;;;;;;;;;5004789;28;20023;-66
2022/05/12 12:58:04;;;;;;;4.30;1.90;;;;;;;;;;5003086;28;20037;-66
2022/05/12 13:00:33;;;;;;;4.78;1.73;;;;;;;;;;5004875;28;20018;-67
2022/05/12 13:03:09;;;;;;;6.15;2.50;;;;;;;;;;5005163;28;20096;-67
2022/05/12 13:05:36;;;;;;;4.43;1.85;;;;;;;;;;5007977;28;20033;-66
2022/05/12 13:08:17;;;;;;;4.53;2.33;;;;;;;;;;5006171;28;20188;-66
2022/05/12 13:10:46;;;;;;;5.65;1.80;;;;;;;;;;5005243;28;20080;-67
2022/05/12 13:13:12;;;;;;;9.02;1.77;;;;;;;;;;5007558;28;20414;-67
2022/05/12 13:15:40;;;;;;;4.70;1.80;;;;;;;;;;5001842;28;20030;-66
2022/05/12 13:18:06;;;;;;;7.78;1.95;;;;;;;;;;5007217;28;20032;-66
2022/05/12 13:20:33;;;;;;;5.85;2.13;;;;;;;;;;5007700;28;20026;-66
2022/05/12 13:23:04;;;;;;;7.32;2.53;;;;;;;;;;5005267;28;20105;-66
2022/05/12 13:25:30;;;;;;;6.72;2.22;;;;;;;;;;5005805;28;20053;-66
2022/05/12 13:27:56;;;;;;;8.68;2.20;;;;;;;;;;5005565;28;20018;-67
2022/05/12 13:30:26;;;;;;;7.63;2.20;;;;;;;;;;5006930;28;20032;-66
2022/05/12 13:32:53;;;;;;;11.63;3.03;;;;;;;;;;5008700;28;20037;-67
2022/05/12 13:35:22;;;;;;;7.60;2.40;;;;;;;;;;5004627;28;20089;-66
2022/05/12 13:37:49;;;;;;;10.40;2.95;;;;;;;;;;5011316;28;20022;-66
2022/05/12 13:40:33;;;;;;;4.25;1.80;;;;;;;;;;5009586;28;20034;-66
2022/05/12 13:42:59;;;;;;;6.32;2.20;;;;;;;;;;5008169;28;20022;-66
2022/05/12 13:45:26;;;;;;;6.07;2.80;;;;;;;;;;5009796;28;20645;-66
2022/05/12 13:47:53;;;;;;;11.57;2.88;;;;;;;;;;5010407;28;20265;-67
2022/05/12 13:50:20;;;;;;;7.00;2.42;;;;;;;;;;5009763;28;20021;-66
2022/05/12 13:52:47;;;;;;;8.25;2.17;;;;;;;;;;5007955;28;20018;-66
2022/05/12 13:55:15;;;;;;;7.32;2.70;;;;;;;;;;5005565;28;20076;-67
2022/05/12 13:57:42;;;;;;;9.55;2.30;;;;;;;;;;5008909;28;20057;-67
2022/05/12 14:00:10;;;;;;;11.13;2.45;;;;;;;;;;5010860;28;20080;-67
2022/05/12 14:02:40;;;;;;;4.88;2.17;;;;;;;;;;5008214;28;20037;-67
2022/05/12 14:05:14;;;;;;;7.78;2.22;;;;;;;;;;5011644;28;20113;-66
2022/05/12 14:07:40;;;;;;;11.38;2.70;;;;;;;;;;5005749;28;20021;-66
2022/05/12 14:10:27;;;;;;;8.23;2.28;;;;;;;;;;5008631;28;20021;-66
2022/05/12 14:21:23;;;;;;;10.43;2.55;;;;;;;;;;5004488;28;20128;-68
2022/05/12 14:23:49;;;;;;;8.13;2.10;;;;;;;;;;5011735;28;20021;-67
2022/05/12 14:26:14;;;;;;;5.37;2.17;;;;;;;;;;5006194;28;20033;-67
2022/05/12 14:28:39;;;;;;;8.82;2.40;;;;;;;;;;5007876;28;20280;-66
2022/05/12 14:31:05;;;;;;;6.07;2.30;;;;;;;;;;5006772;28;20028;-67
2022/05/12 14:33:31;;;;;;;7.93;2.25;;;;;;;;;;5009659;28;20277;-66
2022/05/12 14:35:56;;;;;;;6.47;2.20;;;;;;;;;;5009977;28;20524;-66
2022/05/12 14:38:22;;;;;;;10.27;2.53;;;;;;;;;;5008028;28;20030;-66
2022/05/12 14:40:47;;;;;;;5.65;2.60;;;;;;;;;;5007346;28;20141;-67
2022/05/12 14:43:13;;;;;;;9.70;3.37;;;;;;;;;;5008349;28;20375;-67
2022/05/12 14:45:38;;;;;;;17.42;3.03;;;;;;;;;;5006512;28;20030;-66
2022/05/12 14:48:05;;;;;;;10.07;2.30;;;;;;;;;;5007691;28;20022;-66
2022/05/12 14:50:31;;;;;;;7.00;2.40;;;;;;;;;;5008835;28;20025;-66
2022/05/12 14:52:56;;;;;;;7.18;2.45;;;;;;;;;;5010233;28;20024;-67
2022/05/12 14:55:23;;;;;;;7.23;2.53;;;;;;;;;;5115410;22;20001;-71
2022/05/12 14:57:48;;;;;;;8.73;2.05;;;;;;;;;;5050031;28;20363;-71
2022/05/12 15:00:13;;;;;;;7.63;1.90;;;;;;;;;;5050573;28;20139;-69
2022/05/12 15:02:40;;;;;;;7.82;2.53;;;;;;;;;;5047611;28;20630;-70
2022/05/12 15:05:06;;;;;;;7.40;2.67;;;;;;;;;;5048322;28;20016;-69
2022/05/12 15:07:32;;;;;;;6.65;2.00;;;;;;;;;;5048164;28;20094;-69
2022/05/12 15:09:57;;;;;;;7.20;2.13;;;;;;;;;;5041986;28;20361;-69
2022/05/12 15:12:23;;;;;;;6.85;2.42;;;;;;;;;;5044800;28;20276;-70
2022/05/12 15:14:48;;;;;;;15.25;2.55;;;;;;;;;;5041645;28;20071;-71
2022/05/12 15:17:16;;;;;;;6.30;1.52;;;;;;;;;;5044409;28;20057;-70
2022/05/12 15:19:42;;;;;;;9.75;2.22;;;;;;;;;;5040103;28;20021;-70
2022/05/12 15:22:08;;;;;;;9.80;3.40;;;;;;;;;;5047418;28;20100;-70
2022/05/12 15:24:33;;;;;;;9.00;1.92;;;;;;;;;;5045609;28;20103;-70
2022/05/12 15:26:59;;;;;;;5.00;2.10;;;;;;;;;;5045877;28;20049;-70